sensor_id;sensor_type;location;lat;lon;timestamp;P1;durP1;ratioP1;P2;durP2;ratioP2
19879;SDS011;10102;50.828;4.416;2022-12-31T00:01:28;2.65;;;1.70;;
19879;SDS011;10102;50.828;4.416;2022-12-31T00:03:55;2.10;;;1.70;;
19879;SDS011;10102;50.828;4.416;2022-12-31T00:06:22;2.03;;;1.42;;
19879;SDS011;10102;50.828;4.416;2022-12-31T00:08:54;1.50;;;1.40;;
19879;SDS011;10102;50.828;4.416;2022-12-31T00:11:21;1.33;;;1.23;;
19879;SDS011;10102;50.828;4.416;2022-12-31T00:13:48;5.13;;;1.50;;
19879;SDS011;10102;50.828;4.416;2022-12-31T00:16:15;1.98;;;1.30;;
19879;SDS011;10102;50.828;4.416;2022-12-31T00:18:46;1.50;;;1.40;;
19879;SDS011;10102;50.828;4.416;2022-12-31T00:21:14;3.92;;;1.40;;
19879;SDS011;10102;50.828;4.416;2022-12-31T00:23:40;1.15;;;1.05;;
19879;SDS011;10102;50.828;4.416;2022-12-31T00:26:08;1.00;;;1.00;;
19879;SDS011;10102;50.828;4.416;2022-12-31T00:28:35;2.97;;;1.15;;
19879;SDS011;10102;50.828;4.416;2022-12-31T00:33:36;0.85;;;0.85;;
19879;SDS011;10102;50.828;4.416;2022-12-31T00:36:03;1.00;;;1.00;;
19879;SDS011;10102;50.828;4.416;2022-12-31T00:38:37;0.93;;;0.85;;
19879;SDS011;10102;50.828;4.416;2022-12-31T00:41:04;1.33;;;1.20;;
19879;SDS011;10102;50.828;4.416;2022-12-31T00:43:31;1.23;;;0.98;;
19879;SDS011;10102;50.828;4.416;2022-12-31T00:45:56;1.98;;;0.82;;
19879;SDS011;10102;50.828;4.416;2022-12-31T00:48:22;1.10;;;1.00;;
19879;SDS011;10102;50.828;4.416;2022-12-31T00:50:48;2.97;;;1.20;;
19879;SDS011;10102;50.828;4.416;2022-12-31T00:53:14;1.38;;;0.85;;
19879;SDS011;10102;50.828;4.416;2022-12-31T00:55:40;0.73;;;0.73;;
19879;SDS011;10102;50.828;4.416;2022-12-31T00:58:06;0.75;;;0.75;;
19879;SDS011;10102;50.828;4.416;2022-12-31T01:00:31;0.57;;;0.57;;
19879;SDS011;10102;50.828;4.416;2022-12-31T01:02:57;0.70;;;0.70;;
19879;SDS011;10102;50.828;4.416;2022-12-31T01:05:23;0.55;;;0.55;;
19879;SDS011;10102;50.828;4.416;2022-12-31T01:07:48;0.70;;;0.70;;
19879;SDS011;10102;50.828;4.416;2022-12-31T01:10:14;0.93;;;0.63;;
19879;SDS011;10102;50.828;4.416;2022-12-31T01:13:02;1.33;;;0.70;;
19879;SDS011;10102;50.828;4.416;2022-12-31T01:15:31;0.70;;;0.70;;
19879;SDS011;10102;50.828;4.416;2022-12-31T01:17:59;1.85;;;0.50;;
19879;SDS011;10102;50.828;4.416;2022-12-31T01:20:25;1.95;;;0.70;;
19879;SDS011;10102;50.828;4.416;2022-12-31T01:22:51;0.77;;;0.60;;
19879;SDS011;10102;50.828;4.416;2022-12-31T01:25:17;0.50;;;0.50;;
19879;SDS011;10102;50.828;4.416;2022-12-31T01:27:42;1.35;;;0.75;;
19879;SDS011;10102;50.828;4.416;2022-12-31T01:30:08;2.17;;;0.60;;
19879;SDS011;10102;50.828;4.416;2022-12-31T01:32:34;1.67;;;0.70;;
19879;SDS011;10102;50.828;4.416;2022-12-31T01:35:00;1.10;;;0.60;;
19879;SDS011;10102;50.828;4.416;2022-12-31T01:37:26;0.88;;;0.60;;
19879;SDS011;10102;50.828;4.416;2022-12-31T01:39:52;0.60;;;0.60;;
19879;SDS011;10102;50.828;4.416;2022-12-31T01:42:17;1.70;;;0.40;;
19879;SDS011;10102;50.828;4.416;2022-12-31T01:44:47;2.45;;;0.70;;
19879;SDS011;10102;50.828;4.416;2022-12-31T01:47:16;1.73;;;0.80;;
19879;SDS011;10102;50.828;4.416;2022-12-31T01:49:50;1.00;;;0.65;;
19879;SDS011;10102;50.828;4.416;2022-12-31T01:52:30;0.50;;;0.50;;
19879;SDS011;10102;50.828;4.416;2022-12-31T01:57:38;7.68;;;1.00;;
19879;SDS011;10102;50.828;4.416;2022-12-31T02:00:04;0.70;;;0.70;;
19879;SDS011;10102;50.828;4.416;2022-12-31T02:02:31;2.38;;;0.75;;
19879;SDS011;10102;50.828;4.416;2022-12-31T02:04:58;0.68;;;0.68;;
19879;SDS011;10102;50.828;4.416;2022-12-31T02:07:26;2.05;;;0.80;;
19879;SDS011;10102;50.828;4.416;2022-12-31T02:09:52;2.15;;;0.60;;
19879;SDS011;10102;50.828;4.416;2022-12-31T02:12:18;2.05;;;0.63;;
19879;SDS011;10102;50.828;4.416;2022-12-31T02:14:47;1.83;;;0.90;;
19879;SDS011;10102;50.828;4.416;2022-12-31T02:23:22;0.60;;;0.60;;
19879;SDS011;10102;50.828;4.416;2022-12-31T02:32:12;4.63;;;0.90;;
19879;SDS011;10102;50.828;4.416;2022-12-31T02:35:07;2.00;;;0.75;;
19879;SDS011;10102;50.828;4.416;2022-12-31T02:37:38;4.07;;;0.95;;
19879;SDS011;10102;50.828;4.416;2022-12-31T02:40:09;3.92;;;1.02;;
19879;SDS011;10102;50.828;4.416;2022-12-31T02:42:38;3.70;;;0.90;;
19879;SDS011;10102;50.828;4.416;2022-12-31T02:45:04;2.92;;;0.73;;
19879;SDS011;10102;50.828;4.416;2022-12-31T02:47:38;2.72;;;1.02;;
19879;SDS011;10102;50.828;4.416;2022-12-31T02:50:28;2.25;;;0.63;;
19879;SDS011;10102;50.828;4.416;2022-12-31T02:56:08;3.22;;;0.80;;
19879;SDS011;10102;50.828;4.416;2022-12-31T02:58:55;4.35;;;0.57;;
19879;SDS011;10102;50.828;4.416;2022-12-31T03:01:43;3.50;;;0.88;;
19879;SDS011;10102;50.828;4.416;2022-12-31T03:04:31;3.03;;;0.70;;
19879;SDS011;10102;50.828;4.416;2022-12-31T03:07:02;1.75;;;0.80;;
19879;SDS011;10102;50.828;4.416;2022-12-31T03:09:33;2.80;;;1.10;;
19879;SDS011;10102;50.828;4.416;2022-12-31T03:12:00;2.00;;;0.80;;
19879;SDS011;10102;50.828;4.416;2022-12-31T03:14:45;1.48;;;0.70;;
19879;SDS011;10102;50.828;4.416;2022-12-31T03:17:11;2.42;;;0.85;;
19879;SDS011;10102;50.828;4.416;2022-12-31T03:19:37;6.22;;;1.17;;
19879;SDS011;10102;50.828;4.416;2022-12-31T03:22:21;4.68;;;0.98;;
19879;SDS011;10102;50.828;4.416;2022-12-31T03:24:53;5.50;;;1.60;;
19879;SDS011;10102;50.828;4.416;2022-12-31T03:27:38;1.88;;;0.80;;
19879;SDS011;10102;50.828;4.416;2022-12-31T03:30:04;2.60;;;1.02;;
19879;SDS011;10102;50.828;4.416;2022-12-31T03:32:30;1.95;;;0.70;;
19879;SDS011;10102;50.828;4.416;2022-12-31T03:34:56;1.65;;;0.65;;
19879;SDS011;10102;50.828;4.416;2022-12-31T03:37:22;1.77;;;0.80;;
19879;SDS011;10102;50.828;4.416;2022-12-31T03:39:47;1.15;;;0.82;;
19879;SDS011;10102;50.828;4.416;2022-12-31T03:42:13;3.97;;;0.80;;
19879;SDS011;10102;50.828;4.416;2022-12-31T03:44:38;2.92;;;1.23;;
19879;SDS011;10102;50.828;4.416;2022-12-31T03:47:04;1.88;;;0.93;;
19879;SDS011;10102;50.828;4.416;2022-12-31T03:49:30;2.25;;;0.82;;
19879;SDS011;10102;50.828;4.416;2022-12-31T03:51:55;1.55;;;0.70;;
19879;SDS011;10102;50.828;4.416;2022-12-31T03:54:21;2.42;;;0.90;;
19879;SDS011;10102;50.828;4.416;2022-12-31T03:56:46;2.60;;;0.80;;
19879;SDS011;10102;50.828;4.416;2022-12-31T03:59:12;2.10;;;0.75;;
19879;SDS011;10102;50.828;4.416;2022-12-31T04:01:38;1.70;;;0.90;;
19879;SDS011;10102;50.828;4.416;2022-12-31T04:04:03;2.00;;;0.65;;
19879;SDS011;10102;50.828;4.416;2022-12-31T04:06:29;4.03;;;1.20;;
19879;SDS011;10102;50.828;4.416;2022-12-31T04:08:55;3.50;;;0.90;;
19879;SDS011;10102;50.828;4.416;2022-12-31T04:11:21;1.67;;;1.00;;
19879;SDS011;10102;50.828;4.416;2022-12-31T04:13:46;3.33;;;0.73;;
19879;SDS011;10102;50.828;4.416;2022-12-31T04:16:12;5.05;;;0.80;;
19879;SDS011;10102;50.828;4.416;2022-12-31T04:18:37;4.05;;;1.05;;
19879;SDS011;10102;50.828;4.416;2022-12-31T04:21:03;2.13;;;0.80;;
19879;SDS011;10102;50.828;4.416;2022-12-31T04:23:30;2.85;;;0.63;;
19879;SDS011;10102;50.828;4.416;2022-12-31T04:25:55;1.88;;;0.90;;
19879;SDS011;10102;50.828;4.416;2022-12-31T04:28:21;0.98;;;0.70;;
19879;SDS011;10102;50.828;4.416;2022-12-31T04:30:47;4.68;;;0.80;;
19879;SDS011;10102;50.828;4.416;2022-12-31T04:33:12;4.38;;;0.80;;
19879;SDS011;10102;50.828;4.416;2022-12-31T04:35:38;1.75;;;1.02;;
19879;SDS011;10102;50.828;4.416;2022-12-31T04:38:04;1.95;;;0.77;;
19879;SDS011;10102;50.828;4.416;2022-12-31T04:40:29;1.83;;;0.80;;
19879;SDS011;10102;50.828;4.416;2022-12-31T04:42:55;4.55;;;0.70;;
19879;SDS011;10102;50.828;4.416;2022-12-31T04:45:21;2.88;;;0.65;;
19879;SDS011;10102;50.828;4.416;2022-12-31T04:47:47;1.00;;;0.68;;
19879;SDS011;10102;50.828;4.416;2022-12-31T04:50:12;1.48;;;0.65;;
19879;SDS011;10102;50.828;4.416;2022-12-31T04:52:38;4.88;;;0.82;;
19879;SDS011;10102;50.828;4.416;2022-12-31T04:55:04;2.60;;;0.68;;
19879;SDS011;10102;50.828;4.416;2022-12-31T04:57:30;2.10;;;0.60;;
19879;SDS011;10102;50.828;4.416;2022-12-31T04:59:56;4.43;;;0.90;;
19879;SDS011;10102;50.828;4.416;2022-12-31T05:02:21;1.85;;;0.70;;
19879;SDS011;10102;50.828;4.416;2022-12-31T05:04:47;4.00;;;1.00;;
19879;SDS011;10102;50.828;4.416;2022-12-31T05:07:12;1.27;;;0.70;;
19879;SDS011;10102;50.828;4.416;2022-12-31T05:09:38;2.00;;;0.70;;
19879;SDS011;10102;50.828;4.416;2022-12-31T05:12:04;4.40;;;0.80;;
19879;SDS011;10102;50.828;4.416;2022-12-31T05:14:30;2.75;;;0.77;;
19879;SDS011;10102;50.828;4.416;2022-12-31T05:16:55;0.52;;;0.52;;
19879;SDS011;10102;50.828;4.416;2022-12-31T05:19:22;2.25;;;0.70;;
19879;SDS011;10102;50.828;4.416;2022-12-31T05:21:48;1.48;;;0.70;;
19879;SDS011;10102;50.828;4.416;2022-12-31T05:24:33;5.95;;;1.08;;
19879;SDS011;10102;50.828;4.416;2022-12-31T05:26:59;2.55;;;0.75;;
19879;SDS011;10102;50.828;4.416;2022-12-31T05:29:25;5.38;;;0.80;;
19879;SDS011;10102;50.828;4.416;2022-12-31T05:31:50;2.70;;;0.70;;
19879;SDS011;10102;50.828;4.416;2022-12-31T05:34:16;4.38;;;0.75;;
19879;SDS011;10102;50.828;4.416;2022-12-31T05:36:42;2.75;;;0.82;;
19879;SDS011;10102;50.828;4.416;2022-12-31T05:39:07;2.17;;;0.80;;
19879;SDS011;10102;50.828;4.416;2022-12-31T05:41:33;4.25;;;0.85;;
19879;SDS011;10102;50.828;4.416;2022-12-31T05:43:58;2.65;;;0.80;;
19879;SDS011;10102;50.828;4.416;2022-12-31T05:46:24;3.25;;;0.70;;
19879;SDS011;10102;50.828;4.416;2022-12-31T05:48:50;5.03;;;0.90;;
19879;SDS011;10102;50.828;4.416;2022-12-31T05:51:15;3.97;;;0.80;;
19879;SDS011;10102;50.828;4.416;2022-12-31T05:53:41;3.10;;;0.50;;
19879;SDS011;10102;50.828;4.416;2022-12-31T05:56:07;3.25;;;1.17;;
19879;SDS011;10102;50.828;4.416;2022-12-31T05:58:33;7.30;;;1.00;;
19879;SDS011;10102;50.828;4.416;2022-12-31T06:00:58;2.83;;;0.90;;
19879;SDS011;10102;50.828;4.416;2022-12-31T06:03:24;2.53;;;0.65;;
19879;SDS011;10102;50.828;4.416;2022-12-31T06:05:49;7.15;;;1.17;;
19879;SDS011;10102;50.828;4.416;2022-12-31T06:08:15;3.45;;;0.90;;
19879;SDS011;10102;50.828;4.416;2022-12-31T06:10:41;5.03;;;0.73;;
19879;SDS011;10102;50.828;4.416;2022-12-31T06:13:06;3.50;;;0.93;;
19879;SDS011;10102;50.828;4.416;2022-12-31T06:15:35;3.25;;;1.08;;
19879;SDS011;10102;50.828;4.416;2022-12-31T06:18:01;4.93;;;1.35;;
19879;SDS011;10102;50.828;4.416;2022-12-31T06:20:27;2.80;;;0.98;;
19879;SDS011;10102;50.828;4.416;2022-12-31T06:22:53;3.05;;;0.80;;
19879;SDS011;10102;50.828;4.416;2022-12-31T06:25:18;3.97;;;1.27;;
19879;SDS011;10102;50.828;4.416;2022-12-31T06:27:44;3.55;;;0.70;;
19879;SDS011;10102;50.828;4.416;2022-12-31T06:30:10;6.70;;;1.33;;
19879;SDS011;10102;50.828;4.416;2022-12-31T06:32:36;5.90;;;1.10;;
19879;SDS011;10102;50.828;4.416;2022-12-31T06:35:03;3.58;;;1.00;;
19879;SDS011;10102;50.828;4.416;2022-12-31T06:37:29;5.78;;;1.00;;
19879;SDS011;10102;50.828;4.416;2022-12-31T06:39:55;6.43;;;1.00;;
19879;SDS011;10102;50.828;4.416;2022-12-31T06:42:21;4.05;;;0.75;;
19879;SDS011;10102;50.828;4.416;2022-12-31T06:44:46;5.57;;;1.10;;
19879;SDS011;10102;50.828;4.416;2022-12-31T06:47:12;3.33;;;1.05;;
19879;SDS011;10102;50.828;4.416;2022-12-31T06:49:37;6.75;;;1.33;;
19879;SDS011;10102;50.828;4.416;2022-12-31T06:52:04;5.38;;;1.02;;
19879;SDS011;10102;50.828;4.416;2022-12-31T06:54:30;8.80;;;1.05;;
19879;SDS011;10102;50.828;4.416;2022-12-31T06:56:56;2.15;;;1.15;;
19879;SDS011;10102;50.828;4.416;2022-12-31T06:59:26;5.25;;;1.65;;
19879;SDS011;10102;50.828;4.416;2022-12-31T07:02:03;11.50;;;0.93;;
19879;SDS011;10102;50.828;4.416;2022-12-31T07:04:55;6.03;;;1.05;;
19879;SDS011;10102;50.828;4.416;2022-12-31T07:15:50;5.95;;;1.13;;
19879;SDS011;10102;50.828;4.416;2022-12-31T07:18:36;5.55;;;2.47;;
19879;SDS011;10102;50.828;4.416;2022-12-31T07:21:10;7.75;;;1.40;;
19879;SDS011;10102;50.828;4.416;2022-12-31T07:23:38;5.13;;;1.27;;
19879;SDS011;10102;50.828;4.416;2022-12-31T07:26:18;7.53;;;1.45;;
19879;SDS011;10102;50.828;4.416;2022-12-31T07:35:08;4.93;;;1.40;;
19879;SDS011;10102;50.828;4.416;2022-12-31T07:38:01;3.47;;;1.10;;
19879;SDS011;10102;50.828;4.416;2022-12-31T07:40:49;3.92;;;1.13;;
19879;SDS011;10102;50.828;4.416;2022-12-31T07:49:04;2.92;;;1.38;;
19879;SDS011;10102;50.828;4.416;2022-12-31T07:51:35;3.20;;;1.20;;
19879;SDS011;10102;50.828;4.416;2022-12-31T07:54:01;6.10;;;1.02;;
19879;SDS011;10102;50.828;4.416;2022-12-31T07:56:27;3.30;;;1.15;;
19879;SDS011;10102;50.828;4.416;2022-12-31T08:04:08;3.28;;;0.95;;
19879;SDS011;10102;50.828;4.416;2022-12-31T08:10:26;3.40;;;1.30;;
19879;SDS011;10102;50.828;4.416;2022-12-31T08:13:02;3.97;;;0.90;;
19879;SDS011;10102;50.828;4.416;2022-12-31T08:15:32;5.60;;;1.27;;
19879;SDS011;10102;50.828;4.416;2022-12-31T08:17:58;4.65;;;0.93;;
19879;SDS011;10102;50.828;4.416;2022-12-31T08:20:24;4.72;;;1.00;;
19879;SDS011;10102;50.828;4.416;2022-12-31T08:22:57;2.67;;;1.02;;
19879;SDS011;10102;50.828;4.416;2022-12-31T08:25:54;7.28;;;1.20;;
19879;SDS011;10102;50.828;4.416;2022-12-31T08:31:23;3.58;;;0.90;;
19879;SDS011;10102;50.828;4.416;2022-12-31T08:39:52;6.50;;;1.23;;
19879;SDS011;10102;50.828;4.416;2022-12-31T08:42:29;4.32;;;0.85;;
19879;SDS011;10102;50.828;4.416;2022-12-31T08:45:13;6.35;;;1.10;;
19879;SDS011;10102;50.828;4.416;2022-12-31T08:48:00;3.30;;;1.23;;
19879;SDS011;10102;50.828;4.416;2022-12-31T08:50:40;5.50;;;1.35;;
19879;SDS011;10102;50.828;4.416;2022-12-31T08:53:06;2.92;;;0.90;;
19879;SDS011;10102;50.828;4.416;2022-12-31T08:55:32;5.00;;;1.38;;
19879;SDS011;10102;50.828;4.416;2022-12-31T08:58:14;3.72;;;1.20;;
19879;SDS011;10102;50.828;4.416;2022-12-31T09:01:07;4.93;;;1.08;;
19879;SDS011;10102;50.828;4.416;2022-12-31T09:03:49;3.47;;;1.48;;
19879;SDS011;10102;50.828;4.416;2022-12-31T09:06:53;3.60;;;0.98;;
19879;SDS011;10102;50.828;4.416;2022-12-31T09:12:27;4.30;;;1.00;;
19879;SDS011;10102;50.828;4.416;2022-12-31T09:15:40;3.95;;;1.17;;
19879;SDS011;10102;50.828;4.416;2022-12-31T09:18:09;2.50;;;1.08;;
19879;SDS011;10102;50.828;4.416;2022-12-31T09:20:36;4.45;;;1.85;;
19879;SDS011;10102;50.828;4.416;2022-12-31T09:23:02;7.40;;;1.55;;
19879;SDS011;10102;50.828;4.416;2022-12-31T09:25:28;3.80;;;1.38;;
19879;SDS011;10102;50.828;4.416;2022-12-31T09:31:11;6.05;;;1.30;;
19879;SDS011;10102;50.828;4.416;2022-12-31T09:36:53;6.93;;;1.52;;
19879;SDS011;10102;50.828;4.416;2022-12-31T09:45:15;5.55;;;1.70;;
19879;SDS011;10102;50.828;4.416;2022-12-31T10:23:16;7.75;;;1.92;;
19879;SDS011;10102;50.828;4.416;2022-12-31T10:26:17;6.28;;;2.10;;
19879;SDS011;10102;50.828;4.416;2022-12-31T10:29:19;8.30;;;1.67;;
19879;SDS011;10102;50.828;4.416;2022-12-31T10:43:32;6.38;;;1.58;;
19879;SDS011;10102;50.828;4.416;2022-12-31T10:46:22;9.05;;;1.60;;
19879;SDS011;10102;50.828;4.416;2022-12-31T10:54:25;5.60;;;1.35;;
19879;SDS011;10102;50.828;4.416;2022-12-31T10:57:05;12.10;;;1.60;;
19879;SDS011;10102;50.828;4.416;2022-12-31T11:21:57;6.35;;;2.17;;
19879;SDS011;10102;50.828;4.416;2022-12-31T11:33:30;8.40;;;1.80;;
19879;SDS011;10102;50.828;4.416;2022-12-31T11:39:24;7.35;;;2.05;;
19879;SDS011;10102;50.828;4.416;2022-12-31T11:55:41;9.25;;;1.88;;
19879;SDS011;10102;50.828;4.416;2022-12-31T11:58:12;5.65;;;1.70;;
19879;SDS011;10102;50.828;4.416;2022-12-31T12:00:42;7.32;;;1.38;;
19879;SDS011;10102;50.828;4.416;2022-12-31T12:03:18;6.40;;;1.25;;
19879;SDS011;10102;50.828;4.416;2022-12-31T12:05:44;6.18;;;1.65;;
19879;SDS011;10102;50.828;4.416;2022-12-31T12:08:10;5.88;;;2.28;;
19879;SDS011;10102;50.828;4.416;2022-12-31T12:10:47;6.82;;;1.55;;
19879;SDS011;10102;50.828;4.416;2022-12-31T12:15:47;5.25;;;1.70;;
19879;SDS011;10102;50.828;4.416;2022-12-31T12:18:23;6.57;;;1.67;;
19879;SDS011;10102;50.828;4.416;2022-12-31T12:21:26;4.97;;;1.38;;
19879;SDS011;10102;50.828;4.416;2022-12-31T12:23:57;2.63;;;1.52;;
19879;SDS011;10102;50.828;4.416;2022-12-31T12:26:35;6.30;;;1.70;;
19879;SDS011;10102;50.828;4.416;2022-12-31T12:34:33;6.88;;;1.73;;
19879;SDS011;10102;50.828;4.416;2022-12-31T12:37:01;6.03;;;1.60;;
19879;SDS011;10102;50.828;4.416;2022-12-31T12:39:28;10.38;;;1.88;;
19879;SDS011;10102;50.828;4.416;2022-12-31T12:44:25;11.32;;;2.38;;
19879;SDS011;10102;50.828;4.416;2022-12-31T12:46:51;10.35;;;2.08;;
19879;SDS011;10102;50.828;4.416;2022-12-31T12:49:24;6.65;;;2.13;;
19879;SDS011;10102;50.828;4.416;2022-12-31T12:57:33;11.43;;;2.33;;
19879;SDS011;10102;50.828;4.416;2022-12-31T13:00:21;8.82;;;2.33;;
19879;SDS011;10102;50.828;4.416;2022-12-31T13:08:33;6.75;;;2.65;;
19879;SDS011;10102;50.828;4.416;2022-12-31T13:11:44;5.22;;;1.80;;
19879;SDS011;10102;50.828;4.416;2022-12-31T13:14:12;11.18;;;2.67;;
19879;SDS011;10102;50.828;4.416;2022-12-31T13:19:36;6.90;;;1.80;;
19879;SDS011;10102;50.828;4.416;2022-12-31T13:24:52;8.30;;;2.13;;
19879;SDS011;10102;50.828;4.416;2022-12-31T13:27:28;8.40;;;1.98;;
19879;SDS011;10102;50.828;4.416;2022-12-31T13:30:00;6.97;;;2.25;;
19879;SDS011;10102;50.828;4.416;2022-12-31T13:32:32;9.02;;;1.92;;
19879;SDS011;10102;50.828;4.416;2022-12-31T13:37:58;7.85;;;1.88;;
19879;SDS011;10102;50.828;4.416;2022-12-31T13:40:39;5.00;;;2.13;;
19879;SDS011;10102;50.828;4.416;2022-12-31T13:48:49;8.68;;;1.98;;
19879;SDS011;10102;50.828;4.416;2022-12-31T13:53:58;8.38;;;2.78;;
19879;SDS011;10102;50.828;4.416;2022-12-31T13:56:28;6.70;;;1.80;;
19879;SDS011;10102;50.828;4.416;2022-12-31T14:01:43;6.53;;;2.15;;
19879;SDS011;10102;50.828;4.416;2022-12-31T14:04:27;4.45;;;1.90;;
19879;SDS011;10102;50.828;4.416;2022-12-31T14:07:08;8.23;;;2.10;;
19879;SDS011;10102;50.828;4.416;2022-12-31T14:09:42;8.43;;;2.53;;
19879;SDS011;10102;50.828;4.416;2022-12-31T14:20:27;7.68;;;1.83;;
19879;SDS011;10102;50.828;4.416;2022-12-31T14:25:30;8.98;;;2.50;;
19879;SDS011;10102;50.828;4.416;2022-12-31T14:28:08;7.05;;;1.73;;
19879;SDS011;10102;50.828;4.416;2022-12-31T14:30:49;5.25;;;1.83;;
19879;SDS011;10102;50.828;4.416;2022-12-31T14:47:52;4.35;;;2.17;;
19879;SDS011;10102;50.828;4.416;2022-12-31T14:50:25;7.80;;;2.58;;
19879;SDS011;10102;50.828;4.416;2022-12-31T14:57:58;4.53;;;2.00;;
19879;SDS011;10102;50.828;4.416;2022-12-31T15:03:40;6.50;;;2.05;;
19879;SDS011;10102;50.828;4.416;2022-12-31T15:06:13;8.25;;;2.28;;
19879;SDS011;10102;50.828;4.416;2022-12-31T15:25:18;6.40;;;2.15;;
19879;SDS011;10102;50.828;4.416;2022-12-31T15:28:21;8.65;;;1.83;;
19879;SDS011;10102;50.828;4.416;2022-12-31T15:33:52;8.27;;;2.03;;
19879;SDS011;10102;50.828;4.416;2022-12-31T15:36:21;5.88;;;1.70;;
19879;SDS011;10102;50.828;4.416;2022-12-31T15:38:49;8.15;;;2.15;;
19879;SDS011;10102;50.828;4.416;2022-12-31T15:46:16;6.95;;;2.17;;
19879;SDS011;10102;50.828;4.416;2022-12-31T15:48:48;7.25;;;2.05;;
19879;SDS011;10102;50.828;4.416;2022-12-31T15:51:41;6.28;;;1.92;;
19879;SDS011;10102;50.828;4.416;2022-12-31T15:54:37;8.05;;;1.80;;
19879;SDS011;10102;50.828;4.416;2022-12-31T15:57:06;6.90;;;2.00;;
19879;SDS011;10102;50.828;4.416;2022-12-31T15:59:56;7.75;;;2.03;;
19879;SDS011;10102;50.828;4.416;2022-12-31T16:02:28;8.13;;;1.88;;
19879;SDS011;10102;50.828;4.416;2022-12-31T16:04:54;7.55;;;2.58;;
19879;SDS011;10102;50.828;4.416;2022-12-31T16:07:21;7.97;;;2.20;;
19879;SDS011;10102;50.828;4.416;2022-12-31T16:09:49;6.85;;;2.60;;
19879;SDS011;10102;50.828;4.416;2022-12-31T16:12:18;4.85;;;1.77;;
19879;SDS011;10102;50.828;4.416;2022-12-31T16:14:53;9.60;;;2.30;;
19879;SDS011;10102;50.828;4.416;2022-12-31T16:17:28;8.93;;;2.13;;
19879;SDS011;10102;50.828;4.416;2022-12-31T16:19:55;10.38;;;2.20;;
19879;SDS011;10102;50.828;4.416;2022-12-31T16:22:34;7.78;;;2.50;;
19879;SDS011;10102;50.828;4.416;2022-12-31T16:25:01;10.05;;;2.40;;
19879;SDS011;10102;50.828;4.416;2022-12-31T16:27:28;13.90;;;6.60;;
19879;SDS011;10102;50.828;4.416;2022-12-31T16:30:05;5.78;;;3.13;;
19879;SDS011;10102;50.828;4.416;2022-12-31T16:32:42;6.13;;;2.05;;
19879;SDS011;10102;50.828;4.416;2022-12-31T16:35:24;4.40;;;2.53;;
19879;SDS011;10102;50.828;4.416;2022-12-31T16:38:30;7.18;;;1.98;;
19879;SDS011;10102;50.828;4.416;2022-12-31T16:43:28;7.18;;;1.92;;
19879;SDS011;10102;50.828;4.416;2022-12-31T16:46:06;10.35;;;2.70;;
19879;SDS011;10102;50.828;4.416;2022-12-31T16:48:48;6.97;;;2.08;;
19879;SDS011;10102;50.828;4.416;2022-12-31T16:51:30;4.90;;;2.00;;
19879;SDS011;10102;50.828;4.416;2022-12-31T16:53:57;4.32;;;2.20;;
19879;SDS011;10102;50.828;4.416;2022-12-31T16:56:29;6.95;;;2.28;;
19879;SDS011;10102;50.828;4.416;2022-12-31T16:58:59;6.63;;;2.50;;
19879;SDS011;10102;50.828;4.416;2022-12-31T17:01:30;4.57;;;2.10;;
19879;SDS011;10102;50.828;4.416;2022-12-31T17:03:58;3.58;;;2.30;;
19879;SDS011;10102;50.828;4.416;2022-12-31T17:06:26;2.85;;;1.60;;
19879;SDS011;10102;50.828;4.416;2022-12-31T17:19:35;10.70;;;1.98;;
19879;SDS011;10102;50.828;4.416;2022-12-31T17:24:47;10.00;;;2.38;;
19879;SDS011;10102;50.828;4.416;2022-12-31T17:27:14;9.48;;;2.60;;
19879;SDS011;10102;50.828;4.416;2022-12-31T17:29:40;5.47;;;2.03;;
19879;SDS011;10102;50.828;4.416;2022-12-31T17:32:24;6.13;;;1.73;;
19879;SDS011;10102;50.828;4.416;2022-12-31T17:34:59;9.82;;;2.13;;
19879;SDS011;10102;50.828;4.416;2022-12-31T17:37:26;17.35;;;2.65;;
19879;SDS011;10102;50.828;4.416;2022-12-31T17:39:54;12.05;;;2.38;;
19879;SDS011;10102;50.828;4.416;2022-12-31T17:45:21;7.18;;;1.90;;
19879;SDS011;10102;50.828;4.416;2022-12-31T17:47:48;5.72;;;2.08;;
19879;SDS011;10102;50.828;4.416;2022-12-31T17:50:17;8.15;;;2.63;;
19879;SDS011;10102;50.828;4.416;2022-12-31T17:52:45;8.73;;;2.45;;
19879;SDS011;10102;50.828;4.416;2022-12-31T17:55:11;10.13;;;2.35;;
19879;SDS011;10102;50.828;4.416;2022-12-31T17:57:36;7.50;;;2.78;;
19879;SDS011;10102;50.828;4.416;2022-12-31T18:00:15;7.78;;;2.42;;
19879;SDS011;10102;50.828;4.416;2022-12-31T18:02:46;10.60;;;3.50;;
19879;SDS011;10102;50.828;4.416;2022-12-31T18:05:15;13.68;;;2.60;;
19879;SDS011;10102;50.828;4.416;2022-12-31T18:07:46;11.38;;;2.55;;
19879;SDS011;10102;50.828;4.416;2022-12-31T18:10:12;7.45;;;2.55;;
19879;SDS011;10102;50.828;4.416;2022-12-31T18:12:39;12.48;;;2.60;;
19879;SDS011;10102;50.828;4.416;2022-12-31T18:15:05;14.48;;;2.92;;
19879;SDS011;10102;50.828;4.416;2022-12-31T18:17:31;9.13;;;2.75;;
19879;SDS011;10102;50.828;4.416;2022-12-31T18:19:57;13.57;;;2.65;;
19879;SDS011;10102;50.828;4.416;2022-12-31T18:22:23;10.05;;;3.38;;
19879;SDS011;10102;50.828;4.416;2022-12-31T18:24:50;17.83;;;4.18;;
19879;SDS011;10102;50.828;4.416;2022-12-31T18:27:18;10.57;;;3.75;;
19879;SDS011;10102;50.828;4.416;2022-12-31T18:29:44;13.05;;;2.90;;
19879;SDS011;10102;50.828;4.416;2022-12-31T18:34:43;8.10;;;2.38;;
19879;SDS011;10102;50.828;4.416;2022-12-31T18:37:10;8.82;;;3.03;;
19879;SDS011;10102;50.828;4.416;2022-12-31T18:39:37;7.88;;;2.78;;
19879;SDS011;10102;50.828;4.416;2022-12-31T18:42:02;11.40;;;4.20;;
19879;SDS011;10102;50.828;4.416;2022-12-31T18:44:28;11.65;;;2.85;;
19879;SDS011;10102;50.828;4.416;2022-12-31T18:46:54;8.48;;;3.30;;
19879;SDS011;10102;50.828;4.416;2022-12-31T18:49:19;9.13;;;3.03;;
19879;SDS011;10102;50.828;4.416;2022-12-31T18:51:45;11.93;;;2.60;;
19879;SDS011;10102;50.828;4.416;2022-12-31T18:54:13;14.75;;;3.60;;
19879;SDS011;10102;50.828;4.416;2022-12-31T18:56:40;11.32;;;2.30;;
19879;SDS011;10102;50.828;4.416;2022-12-31T18:59:06;10.70;;;3.03;;
19879;SDS011;10102;50.828;4.416;2022-12-31T19:01:34;8.02;;;3.72;;
19879;SDS011;10102;50.828;4.416;2022-12-31T19:04:03;13.30;;;3.30;;
19879;SDS011;10102;50.828;4.416;2022-12-31T19:06:39;11.90;;;3.78;;
19879;SDS011;10102;50.828;4.416;2022-12-31T19:09:04;8.23;;;3.10;;
19879;SDS011;10102;50.828;4.416;2022-12-31T19:11:30;8.80;;;3.65;;
19879;SDS011;10102;50.828;4.416;2022-12-31T19:14:00;9.32;;;2.97;;
19879;SDS011;10102;50.828;4.416;2022-12-31T19:16:26;9.00;;;2.08;;
19879;SDS011;10102;50.828;4.416;2022-12-31T19:18:52;9.18;;;2.85;;
19879;SDS011;10102;50.828;4.416;2022-12-31T19:21:21;12.60;;;4.28;;
19879;SDS011;10102;50.828;4.416;2022-12-31T19:23:48;10.05;;;4.18;;
19879;SDS011;10102;50.828;4.416;2022-12-31T19:26:15;9.68;;;3.47;;
19879;SDS011;10102;50.828;4.416;2022-12-31T19:28:42;8.60;;;3.60;;
19879;SDS011;10102;50.828;4.416;2022-12-31T19:31:09;10.35;;;3.60;;
19879;SDS011;10102;50.828;4.416;2022-12-31T19:33:35;16.85;;;7.40;;
19879;SDS011;10102;50.828;4.416;2022-12-31T19:36:01;15.48;;;4.10;;
19879;SDS011;10102;50.828;4.416;2022-12-31T19:38:27;11.65;;;3.65;;
19879;SDS011;10102;50.828;4.416;2022-12-31T19:40:53;6.88;;;3.72;;
19879;SDS011;10102;50.828;4.416;2022-12-31T19:43:20;16.15;;;5.53;;
19879;SDS011;10102;50.828;4.416;2022-12-31T19:45:47;9.13;;;3.50;;
19879;SDS011;10102;50.828;4.416;2022-12-31T19:48:18;13.38;;;3.90;;
19879;SDS011;10102;50.828;4.416;2022-12-31T19:50:50;7.00;;;2.80;;
19879;SDS011;10102;50.828;4.416;2022-12-31T19:53:18;9.05;;;2.60;;
19879;SDS011;10102;50.828;4.416;2022-12-31T19:55:46;9.68;;;4.00;;
19879;SDS011;10102;50.828;4.416;2022-12-31T19:58:17;9.05;;;2.83;;
19879;SDS011;10102;50.828;4.416;2022-12-31T20:00:44;11.90;;;3.78;;
19879;SDS011;10102;50.828;4.416;2022-12-31T20:03:11;10.35;;;4.63;;